createdAt,value
2022-09-20T00:00:52.176Z,9.56
2022-09-20T00:03:21.710Z,9.53
2022-09-20T00:05:51.160Z,9.46
2022-09-20T00:08:20.537Z,9.44
2022-09-20T00:10:50.542Z,9.49
2022-09-20T00:13:19.979Z,9.47
2022-09-20T00:15:52.166Z,9.47
2022-09-20T00:18:21.584Z,9.47
2022-09-20T00:20:52.959Z,9.48
2022-09-20T00:23:22.798Z,9.45
2022-09-20T00:25:58.677Z,9.50
2022-09-20T00:28:28.544Z,9.44
2022-09-20T00:31:00.707Z,9.43
2022-09-20T00:33:50.969Z,9.48
2022-09-20T00:36:17.857Z,9.45
2022-09-20T00:38:47.539Z,9.46
2022-09-20T00:41:17.368Z,9.43
2022-09-20T00:43:48.543Z,9.45
2022-09-20T00:46:27.437Z,9.41
2022-09-20T00:49:01.809Z,9.42
2022-09-20T00:51:34.787Z,9.40
2022-09-20T00:54:08.659Z,9.39
2022-09-20T00:56:44.171Z,9.44
2022-09-20T00:59:19.809Z,9.41
2022-09-20T01:01:56.799Z,9.45
2022-09-20T01:04:29.822Z,9.42
2022-09-20T01:07:03.579Z,9.43
2022-09-20T01:09:33.020Z,9.37
2022-09-20T01:12:06.823Z,9.37
2022-09-20T01:14:37.516Z,9.40
2022-09-20T01:17:10.919Z,9.36
2022-09-20T01:19:45.692Z,9.37
2022-09-20T01:22:21.856Z,9.50
2022-09-20T01:25:00.436Z,9.53
2022-09-20T01:27:45.688Z,9.52
2022-09-20T01:33:09.033Z,9.73
2022-09-20T01:35:58.805Z,9.74
2022-09-20T01:38:44.201Z,9.67
2022-09-20T01:41:18.347Z,9.75
2022-09-20T01:43:55.751Z,9.82
2022-09-20T01:46:33.890Z,9.75
2022-09-20T01:49:17.722Z,9.73
2022-09-20T01:52:16.827Z,9.85
2022-09-20T01:55:22.477Z,9.93
2022-09-20T01:58:36.286Z,9.99
2022-09-20T02:01:35.424Z,9.86
2022-09-20T02:04:37.505Z,9.96
2022-09-20T02:07:47.895Z,9.89
2022-09-20T02:10:48.813Z,9.99
2022-09-20T02:13:33.968Z,10.08
2022-09-20T02:16:34.696Z,10.13
2022-09-20T02:19:29.474Z,10.04
2022-09-20T02:22:16.184Z,10.15
2022-09-20T02:24:59.170Z,10.16
2022-09-20T02:27:38.330Z,10.08
2022-09-20T02:30:31.792Z,10.16
2022-09-20T02:33:27.186Z,10.29
2022-09-20T02:36:15.527Z,10.22
2022-09-20T02:39:02.595Z,10.28
2022-09-20T02:42:05.183Z,10.25
2022-09-20T02:44:57.389Z,10.26
2022-09-20T02:47:36.396Z,10.34
2022-09-20T02:50:26.383Z,10.23
2022-09-20T02:53:08.685Z,10.32
2022-09-20T02:55:48.786Z,10.37
2022-09-20T02:58:36.561Z,10.45
2022-09-20T03:01:23.342Z,10.34
2022-09-20T03:04:08.680Z,10.34
2022-09-20T03:06:52.605Z,10.27
2022-09-20T03:09:34.015Z,10.25
2022-09-20T03:12:14.300Z,10.29
2022-09-20T03:14:49.489Z,10.35
2022-09-20T03:17:27.042Z,10.36
2022-09-20T03:20:11.691Z,10.30
2022-09-20T03:22:57.687Z,10.30
2022-09-20T03:25:45.253Z,10.24
2022-09-20T03:28:29.178Z,10.29
2022-09-20T03:31:11.661Z,10.31
2022-09-20T03:33:52.660Z,10.33
2022-09-20T03:36:43.645Z,10.30
2022-09-20T03:39:34.685Z,10.25
2022-09-20T03:42:20.015Z,10.15
2022-09-20T03:45:11.346Z,10.21
2022-09-20T03:47:58.975Z,10.16
2022-09-20T03:50:58.808Z,10.14
2022-09-20T03:53:45.547Z,10.20
2022-09-20T03:56:48.202Z,10.23
2022-09-20T03:59:46.088Z,10.20
2022-09-20T04:02:38.711Z,10.07
2022-09-20T04:05:13.237Z,10.05
2022-09-20T04:07:56.718Z,10.14
2022-09-20T04:10:59.848Z,10.10
2022-09-20T04:13:47.926Z,10.04
2022-09-20T04:16:32.758Z,10.17
2022-09-20T04:19:14.580Z,10.09
2022-09-20T04:21:51.315Z,10.22
2022-09-20T04:24:27.066Z,10.11
2022-09-20T04:27:03.872Z,10.16
2022-09-20T04:29:48.544Z,10.17
2022-09-20T04:32:24.601Z,10.17
2022-09-20T04:35:27.872Z,10.25
2022-09-20T04:38:06.311Z,10.17
2022-09-20T04:40:57.857Z,10.14
2022-09-20T04:44:15.333Z,10.26
2022-09-20T04:47:25.903Z,10.14
2022-09-20T04:50:32.746Z,10.14
2022-09-20T04:53:34.433Z,10.16
2022-09-20T04:56:09.777Z,10.19
2022-09-20T04:58:50.045Z,10.13
2022-09-20T05:02:03.811Z,10.09
2022-09-20T05:05:06.772Z,10.16
2022-09-20T05:08:17.844Z,10.20
2022-09-20T05:11:16.394Z,10.25
2022-09-20T05:14:04.932Z,10.23
2022-09-20T05:16:52.414Z,10.14
2022-09-20T05:19:43.762Z,10.06
2022-09-20T05:22:53.689Z,10.17
2022-09-20T05:25:42.781Z,10.19
2022-09-20T05:28:19.539Z,10.08
2022-09-20T05:30:54.700Z,10.06
2022-09-20T05:33:32.404Z,10.14
2022-09-20T05:36:25.687Z,10.25
2022-09-20T05:39:03.568Z,10.29
2022-09-20T05:41:46.843Z,10.26
2022-09-20T05:44:44.428Z,10.38
2022-09-20T05:47:23.628Z,10.35
2022-09-20T05:50:06.914Z,10.25
2022-09-20T05:52:54.384Z,10.40
2022-09-20T05:55:59.151Z,10.33
2022-09-20T05:58:56.084Z,10.27
2022-09-20T06:01:37.556Z,10.34
2022-09-20T06:04:18.724Z,10.27
2022-09-20T06:06:57.918Z,10.26
2022-09-20T06:09:48.839Z,10.39
2022-09-20T06:12:40.064Z,10.39
2022-09-20T06:15:22.508Z,10.33
2022-09-20T06:18:00.616Z,10.38
2022-09-20T06:20:40.657Z,10.33
2022-09-20T06:23:12.999Z,10.33
2022-09-20T06:25:49.910Z,10.43
2022-09-20T06:28:22.743Z,10.40
2022-09-20T06:30:57.637Z,10.70
2022-09-20T06:33:33.363Z,10.67
2022-09-20T06:36:24.231Z,10.56
2022-09-20T06:39:23.055Z,10.70
2022-09-20T06:41:58.337Z,10.80
2022-09-20T06:44:31.486Z,10.73
2022-09-20T06:47:13.077Z,10.84
2022-09-20T06:49:47.259Z,10.81
2022-09-20T06:52:23.710Z,10.81
2022-09-20T06:54:59.376Z,10.91
2022-09-20T06:57:39.519Z,11.01
2022-09-20T07:00:17.805Z,10.99
2022-09-20T07:02:51.680Z,10.75
2022-09-20T07:05:24.631Z,10.81
2022-09-20T07:08:04.747Z,10.97
2022-09-20T07:10:47.453Z,10.90
2022-09-20T07:13:22.887Z,10.99
2022-09-20T07:15:55.656Z,11.14
2022-09-20T07:18:31.452Z,11.13
2022-09-20T07:21:04.166Z,11.24
2022-09-20T07:23:37.331Z,11.18
2022-09-20T07:26:08.014Z,11.20
2022-09-20T07:28:51.766Z,11.14
2022-09-20T07:31:27.152Z,11.05
2022-09-20T07:34:07.708Z,11.12
2022-09-20T07:36:37.790Z,11.35
2022-09-20T07:39:08.357Z,11.47
2022-09-20T07:41:44.330Z,11.48
2022-09-20T07:44:29.773Z,11.66
2022-09-20T07:47:05.239Z,11.43
2022-09-20T07:49:48.041Z,11.46
2022-09-20T07:52:31.623Z,11.76
2022-09-20T07:55:04.197Z,11.75
2022-09-20T07:57:41.028Z,11.71
2022-09-20T08:00:17.558Z,11.90
2022-09-20T08:03:12.087Z,11.55
2022-09-20T08:05:47.528Z,11.62
2022-09-20T08:08:48.690Z,11.55
2022-09-20T08:11:30.329Z,11.67
2022-09-20T08:14:25.074Z,11.65
2022-09-20T08:20:10.560Z,11.70
2022-09-20T08:22:43.645Z,11.70
2022-09-20T08:25:13.593Z,11.99
2022-09-20T08:27:43.781Z,12.15
2022-09-20T08:30:14.101Z,12.27
2022-09-20T08:32:51.357Z,12.27
2022-09-20T08:35:25.665Z,12.65
2022-09-20T08:40:51.491Z,14.30
2022-09-20T08:43:22.694Z,13.73
2022-09-20T08:45:53.473Z,13.88
2022-09-20T08:48:28.725Z,14.14
2022-09-20T08:51:05.399Z,14.45
2022-09-20T08:57:09.361Z,14.04
2022-09-20T08:59:50.932Z,14.78
2022-09-20T09:02:22.840Z,15.23
2022-09-20T09:04:55.381Z,14.50
2022-09-20T09:07:27.121Z,14.36
2022-09-20T09:10:00.830Z,14.16
2022-09-20T09:12:40.110Z,14.94
2022-09-20T09:15:34.444Z,16.62
2022-09-20T09:18:13.170Z,18.42
2022-09-20T09:21:05.488Z,17.78
2022-09-20T09:23:46.696Z,16.12
2022-09-20T09:26:26.165Z,15.00
2022-09-20T09:29:23.116Z,14.51
2022-09-20T09:32:13.526Z,14.25
2022-09-20T09:34:43.388Z,14.28
2022-09-20T09:40:22.796Z,14.92
2022-09-20T09:43:00.891Z,14.96
2022-09-20T09:45:38.957Z,15.03
2022-09-20T09:48:24.562Z,15.06
2022-09-20T09:51:15.747Z,15.44
2022-09-20T09:53:52.049Z,16.63
2022-09-20T09:56:38.472Z,18.30
2022-09-20T09:59:40.299Z,19.64
2022-09-20T10:02:36.181Z,19.60
2022-09-20T10:05:16.248Z,19.83
2022-09-20T10:07:57.121Z,18.93
2022-09-20T10:10:36.520Z,18.87
2022-09-20T10:13:34.234Z,19.58
2022-09-20T10:16:19.630Z,20.16
2022-09-20T10:19:02.917Z,18.80
2022-09-20T10:22:05.239Z,17.97
2022-09-20T10:24:55.804Z,18.21
2022-09-20T10:27:53.646Z,19.43
2022-09-20T10:30:28.601Z,20.11
2022-09-20T10:33:06.518Z,19.39
2022-09-20T10:35:57.422Z,19.65
2022-09-20T10:38:36.409Z,18.93
2022-09-20T10:41:50.368Z,18.67
2022-09-20T10:44:38.250Z,17.90
2022-09-20T10:47:22.564Z,19.12
2022-09-20T10:50:01.412Z,20.67
2022-09-20T10:53:15.193Z,20.65
2022-09-20T10:58:56.436Z,22.82
2022-09-20T11:01:33.514Z,23.18
2022-09-20T11:04:42.327Z,22.40
2022-09-20T11:07:20.593Z,23.49
2022-09-20T11:09:58.582Z,23.09
2022-09-20T11:12:33.955Z,23.11
2022-09-20T11:15:17.447Z,20.81
2022-09-20T11:17:56.859Z,21.46
2022-09-20T11:20:31.201Z,22.79
2022-09-20T11:23:08.226Z,22.17
2022-09-20T11:25:47.426Z,21.75
2022-09-20T11:28:27.284Z,21.06
2022-09-20T11:31:05.740Z,20.87
2022-09-20T11:33:47.258Z,21.08
2022-09-20T11:36:30.704Z,21.11
2022-09-20T11:39:08.732Z,21.88
2022-09-20T11:41:43.048Z,21.01
2022-09-20T11:44:47.800Z,20.80
2022-09-20T11:47:55.544Z,22.70
2022-09-20T11:50:49.907Z,23.54
2022-09-20T11:53:36.783Z,21.44
2022-09-20T11:56:18.237Z,20.42
2022-09-20T11:59:04.574Z,19.53
2022-09-20T12:01:37.519Z,19.18
2022-09-20T12:04:39.209Z,19.11
2022-09-20T12:07:24.992Z,18.20
2022-09-20T12:10:02.325Z,18.19
2022-09-20T12:12:43.577Z,18.12
2022-09-20T12:19:09.491Z,18.75
2022-09-20T12:22:10.068Z,17.80
2022-09-20T12:24:53.454Z,17.63
2022-09-20T12:28:03.051Z,17.68
2022-09-20T12:30:43.023Z,18.12
2022-09-20T12:33:58.333Z,17.51
2022-09-20T12:36:32.700Z,17.11
2022-09-20T12:39:26.327Z,16.95
2022-09-20T12:45:32.137Z,17.32
2022-09-20T12:48:40.314Z,17.52
2022-09-20T12:52:10.507Z,18.56
2022-09-20T12:55:04.761Z,19.88
2022-09-20T12:57:54.816Z,20.50
2022-09-20T13:00:44.071Z,21.57
2022-09-20T13:03:42.941Z,21.04
2022-09-20T13:06:41.912Z,21.61
2022-09-20T13:09:22.692Z,22.17
2022-09-20T13:12:01.851Z,21.90
2022-09-20T13:14:35.021Z,23.00
2022-09-20T13:17:28.470Z,22.77
2022-09-20T13:20:05.222Z,22.14
2022-09-20T13:22:47.389Z,22.22
2022-09-20T13:25:23.882Z,22.07
2022-09-20T13:28:07.797Z,21.37
2022-09-20T13:30:46.635Z,21.61
2022-09-20T13:33:25.999Z,22.03
2022-09-20T13:36:07.867Z,22.47
2022-09-20T13:38:40.631Z,21.64
2022-09-20T13:41:13.595Z,21.24
2022-09-20T13:43:47.809Z,21.52
2022-09-20T13:46:26.395Z,21.75
2022-09-20T13:49:03.037Z,22.45
2022-09-20T13:51:42.953Z,22.34
2022-09-20T13:54:43.173Z,21.89
2022-09-20T13:57:23.909Z,21.55
2022-09-20T13:59:54.888Z,21.45
2022-09-20T14:02:34.124Z,21.70
2022-09-20T14:05:56.730Z,21.81
2022-09-20T14:09:11.492Z,22.00
2022-09-20T14:15:23.882Z,21.75
2022-09-20T14:18:20.256Z,21.80
2022-09-20T14:25:19.593Z,22.28
2022-09-20T14:32:38.023Z,21.66
2022-09-20T14:35:27.402Z,21.49
2022-09-20T14:38:03.034Z,21.31
2022-09-20T14:40:48.145Z,21.92
2022-09-20T14:47:26.826Z,22.56
2022-09-20T14:50:55.550Z,22.18
2022-09-20T14:53:37.465Z,21.44
2022-09-20T14:56:54.493Z,20.59
2022-09-20T14:59:43.744Z,19.53
2022-09-20T15:02:29.389Z,19.09
2022-09-20T15:05:30.171Z,18.64
2022-09-20T15:12:56.627Z,17.72
2022-09-20T15:15:40.369Z,17.75
2022-09-20T15:18:32.707Z,17.43
2022-09-20T15:21:03.999Z,17.33
2022-09-20T15:23:55.385Z,17.19
2022-09-20T15:26:35.826Z,16.91
2022-09-20T15:29:09.949Z,16.87
2022-09-20T15:31:40.511Z,16.97
2022-09-20T15:34:12.881Z,17.08
2022-09-20T15:36:43.479Z,17.21
2022-09-20T15:39:57.102Z,17.22
2022-09-20T15:42:39.016Z,17.14
2022-09-20T15:49:00.511Z,17.13
2022-09-20T15:51:33.953Z,17.11
2022-09-20T15:54:24.372Z,16.93
2022-09-20T15:58:29.550Z,16.97
2022-09-20T16:00:50.198Z,16.43
2022-09-20T16:03:21.302Z,16.06
2022-09-20T16:06:04.604Z,15.90
2022-09-20T16:08:51.806Z,15.69
2022-09-20T16:11:59.579Z,15.45
2022-09-20T16:14:30.041Z,15.35
2022-09-20T16:17:02.636Z,15.27
2022-09-20T16:19:33.509Z,14.99
2022-09-20T16:22:10.782Z,14.78
2022-09-20T16:24:47.360Z,14.68
2022-09-20T16:27:20.412Z,14.58
2022-09-20T16:29:50.347Z,14.59
2022-09-20T16:32:28.013Z,14.40
2022-09-20T16:35:23.197Z,14.66
2022-09-20T16:37:55.445Z,14.55
2022-09-20T16:40:46.885Z,14.77
2022-09-20T16:43:26.053Z,14.91
2022-09-20T16:46:13.723Z,15.02
2022-09-20T16:49:01.242Z,15.11
2022-09-20T16:51:35.340Z,15.17
2022-09-20T16:54:08.510Z,15.17
2022-09-20T16:59:56.877Z,15.25
2022-09-20T17:02:26.894Z,15.12
2022-09-20T17:05:03.070Z,15.08
2022-09-20T17:07:34.691Z,14.98
2022-09-20T17:10:11.291Z,14.94
2022-09-20T17:12:49.112Z,14.81
2022-09-20T17:15:25.583Z,14.76
2022-09-20T17:18:05.766Z,14.71
2022-09-20T17:20:48.404Z,14.66
2022-09-20T17:23:55.908Z,14.64
2022-09-20T17:26:45.872Z,14.57
2022-09-20T17:29:51.277Z,14.45
2022-09-20T17:32:26.253Z,14.30
2022-09-20T17:35:00.966Z,14.26
2022-09-20T17:37:44.244Z,14.20
2022-09-20T17:40:17.378Z,14.12
2022-09-20T17:42:51.341Z,14.00
2022-09-20T17:45:23.452Z,13.98
2022-09-20T17:47:56.116Z,13.97
2022-09-20T17:51:00.766Z,13.89
2022-09-20T17:53:35.042Z,13.87
2022-09-20T17:56:06.735Z,13.83
2022-09-20T17:58:39.725Z,13.80
2022-09-20T18:01:26.236Z,13.77
2022-09-20T18:03:58.258Z,13.71
2022-09-20T18:06:39.193Z,13.61
2022-09-20T18:09:20.182Z,13.56
2022-09-20T18:11:52.118Z,13.53
2022-09-20T18:14:25.680Z,13.45
2022-09-20T18:16:57.976Z,13.41
2022-09-20T18:19:32.918Z,13.37
2022-09-20T18:22:14.072Z,13.33
2022-09-20T18:24:49.883Z,13.30
2022-09-20T18:27:22.759Z,13.22
2022-09-20T18:29:52.557Z,13.16
2022-09-20T18:32:27.222Z,13.18
2022-09-20T18:34:57.118Z,13.16
2022-09-20T18:37:39.377Z,13.16
2022-09-20T18:40:25.977Z,13.09
2022-09-20T18:43:04.507Z,13.02
2022-09-20T18:45:35.843Z,12.98
2022-09-20T18:48:10.880Z,13.01
2022-09-20T18:50:40.979Z,12.99
2022-09-20T18:53:12.886Z,12.96
2022-09-20T18:55:46.709Z,12.93
2022-09-20T18:58:21.576Z,12.90
2022-09-20T19:00:58.770Z,12.81
2022-09-20T19:03:35.592Z,12.73
2022-09-20T19:06:11.867Z,12.70
2022-09-20T19:08:48.723Z,12.71
2022-09-20T19:11:36.138Z,12.62
2022-09-20T19:14:13.768Z,12.57
2022-09-20T19:16:44.483Z,12.48
2022-09-20T19:19:32.325Z,12.46
2022-09-20T19:22:09.931Z,12.43
2022-09-20T19:25:24.238Z,12.42
2022-09-20T19:27:59.661Z,12.30
2022-09-20T19:30:30.233Z,12.39
2022-09-20T19:33:02.958Z,12.38
2022-09-20T19:35:39.919Z,12.34
2022-09-20T19:38:17.803Z,12.30
2022-09-20T19:41:00.799Z,12.23
2022-09-20T19:43:50.652Z,12.21
2022-09-20T19:46:42.642Z,12.16
2022-09-20T19:49:19.740Z,12.12
2022-09-20T19:51:51.505Z,12.08
2022-09-20T19:54:22.417Z,12.13
2022-09-20T19:57:00.690Z,12.10
2022-09-20T19:59:35.073Z,12.05
2022-09-20T20:02:08.833Z,11.94
2022-09-20T20:04:39.921Z,11.83
2022-09-20T20:07:19.480Z,11.82
2022-09-20T20:10:02.743Z,11.72
2022-09-20T20:12:39.562Z,11.68
2022-09-20T20:15:28.952Z,11.67
2022-09-20T20:18:08.403Z,11.64
2022-09-20T20:20:47.570Z,11.64
2022-09-20T20:23:43.033Z,11.59
2022-09-20T20:26:25.717Z,11.47
2022-09-20T20:28:56.988Z,11.46
2022-09-20T20:31:35.349Z,11.44
2022-09-20T20:34:09.064Z,11.41
2022-09-20T20:36:43.903Z,11.42
2022-09-20T20:39:17.433Z,11.40
2022-09-20T20:41:54.844Z,11.39
2022-09-20T20:44:27.135Z,11.36
2022-09-20T20:47:01.962Z,11.36
2022-09-20T20:49:35.344Z,11.27
2022-09-20T20:52:11.039Z,11.28
2022-09-20T20:54:43.200Z,11.24
2022-09-20T20:57:30.734Z,11.27
2022-09-20T21:00:06.342Z,11.23
2022-09-20T21:02:45.357Z,11.18
2022-09-20T21:05:23.207Z,11.08
2022-09-20T21:08:02.944Z,11.02
2022-09-20T21:10:35.410Z,11.00
2022-09-20T21:13:17.410Z,10.90
2022-09-20T21:15:47.228Z,10.89
2022-09-20T21:18:29.867Z,10.84
2022-09-20T21:21:13.239Z,10.72
2022-09-20T21:24:07.441Z,10.80
2022-09-20T21:27:04.789Z,10.76
2022-09-20T21:29:50.129Z,10.68
2022-09-20T21:32:23.260Z,10.61
2022-09-20T21:34:57.462Z,10.62
2022-09-20T21:37:28.105Z,10.58
2022-09-20T21:40:01.110Z,10.57
2022-09-20T21:42:39.527Z,10.49
2022-09-20T21:45:21.310Z,10.49
2022-09-20T21:47:54.906Z,10.45
2022-09-20T21:50:27.803Z,10.45
2022-09-20T21:52:58.007Z,10.41
2022-09-20T21:55:28.070Z,10.32
2022-09-20T21:57:58.260Z,10.29
2022-09-20T22:00:30.083Z,10.25
2022-09-20T22:03:01.284Z,10.19
2022-09-20T22:05:34.772Z,10.19
2022-09-20T22:08:09.829Z,10.21
2022-09-20T22:10:39.830Z,10.13
2022-09-20T22:13:12.635Z,10.18
2022-09-20T22:15:43.127Z,10.21
2022-09-20T22:18:13.199Z,10.17
2022-09-20T22:20:46.228Z,10.17
2022-09-20T22:23:19.331Z,10.13
2022-09-20T22:26:02.215Z,10.10
2022-09-20T22:28:32.466Z,10.13
2022-09-20T22:31:11.180Z,10.13
2022-09-20T22:33:46.447Z,10.14
2022-09-20T22:36:23.498Z,10.11
2022-09-20T22:38:53.895Z,10.11
2022-09-20T22:41:24.947Z,10.08
2022-09-20T22:43:55.254Z,10.10
2022-09-20T22:46:26.952Z,10.08
2022-09-20T22:48:59.307Z,10.05
2022-09-20T22:51:34.292Z,10.00
2022-09-20T22:54:08.828Z,9.98
2022-09-20T22:56:39.905Z,9.95
2022-09-20T22:59:14.038Z,9.91
2022-09-20T23:01:47.352Z,9.81
2022-09-20T23:04:20.824Z,9.75
2022-09-20T23:06:55.394Z,9.73
2022-09-20T23:09:28.171Z,9.68
2022-09-20T23:11:59.961Z,9.68
2022-09-20T23:14:29.753Z,9.68
2022-09-20T23:17:00.079Z,9.63
2022-09-20T23:19:29.883Z,9.65
2022-09-20T23:22:02.911Z,9.69
2022-09-20T23:24:32.569Z,9.66
2022-09-20T23:27:04.741Z,9.68
2022-09-20T23:29:35.870Z,9.60
2022-09-20T23:32:05.530Z,9.59
2022-09-20T23:34:35.562Z,9.58
2022-09-20T23:37:08.130Z,9.57
2022-09-20T23:39:42.165Z,9.52
2022-09-20T23:42:12.008Z,9.51
2022-09-20T23:44:44.226Z,9.42
2022-09-20T23:47:13.848Z,9.41
2022-09-20T23:49:44.491Z,9.34
2022-09-20T23:52:18.104Z,9.40
2022-09-20T23:54:48.381Z,9.36
2022-09-20T23:57:19.257Z,9.35
2022-09-20T23:59:59.496Z,9.37
